Time;durP1;ratioP1;P1;durP2;ratioP2;P2;SDS_P1;SDS_P2;PMS_P1;PMS_P2;Temp;Humidity;BMP_temperature;BMP_pressure;BME280_temperature;BME280_humidity;BME280_pressure;Samples;Min_cycle;Max_cycle;Signal;HPM_P1;HPM_P2
2021/11/25 00:01:49;;;;;;;5.85;2.00;;;23.80;51.80;;;;;;4939712;28;20215;-49
2021/11/25 00:04:21;;;;;;;4.47;2.10;;;23.80;51.80;;;;;;4942805;28;20691;-46
2021/11/25 00:06:52;;;;;;;3.58;1.60;;;23.80;51.90;;;;;;4941466;29;20242;-46
2021/11/25 00:09:22;;;;;;;3.42;1.65;;;23.80;51.90;;;;;;4941745;28;20203;-44
2021/11/25 00:11:53;;;;;;;5.05;1.88;;;23.90;52.00;;;;;;4944753;29;20247;-44
2021/11/25 00:14:25;;;;;;;2.47;1.40;;;24.00;51.90;;;;;;4938962;28;20198;-47
2021/11/25 00:16:56;;;;;;;4.38;1.77;;;24.00;51.80;;;;;;4946643;28;20207;-44
2021/11/25 00:19:26;;;;;;;4.25;1.65;;;24.00;51.70;;;;;;4936725;29;20227;-44
2021/11/25 00:21:57;;;;;;;2.13;1.52;;;24.00;51.70;;;;;;4944655;28;20242;-45
2021/11/25 00:24:28;;;;;;;4.45;1.45;;;24.10;51.70;;;;;;4941607;29;20191;-49
2021/11/25 00:26:58;;;;;;;4.30;1.35;;;24.20;51.70;;;;;;4941297;29;20618;-49
2021/11/25 00:29:31;;;;;;;3.58;1.77;;;24.20;51.60;;;;;;4944423;29;20246;-48
2021/11/25 00:32:01;;;;;;;4.18;1.50;;;24.20;51.50;;;;;;4938328;28;22406;-48
2021/11/25 00:34:32;;;;;;;4.22;1.85;;;24.30;51.50;;;;;;4946882;28;20202;-47
2021/11/25 00:37:03;;;;;;;4.72;2.00;;;24.30;51.40;;;;;;4942089;28;20616;-46
2021/11/25 00:39:34;;;;;;;3.50;1.60;;;24.30;51.20;;;;;;4950882;28;20877;-47
2021/11/25 00:42:04;;;;;;;2.90;1.60;;;24.40;51.20;;;;;;4944132;29;20274;-46
2021/11/25 00:44:37;;;;;;;3.90;1.52;;;24.40;51.20;;;;;;4946386;28;20211;-49
2021/11/25 00:47:07;;;;;;;4.82;1.65;;;24.50;51.20;;;;;;4947576;28;20207;-48
2021/11/25 00:49:38;;;;;;;3.20;1.50;;;24.50;51.20;;;;;;4942432;28;20204;-48
2021/11/25 00:52:09;;;;;;;3.72;1.50;;;24.50;51.00;;;;;;4949770;29;20195;-52
2021/11/25 00:54:40;;;;;;;4.70;1.88;;;24.50;51.00;;;;;;4938497;28;20224;-53
2021/11/25 00:57:10;;;;;;;4.80;2.00;;;24.60;51.00;;;;;;4950856;28;20258;-51
2021/11/25 00:59:43;;;;;;;3.33;1.50;;;24.60;51.00;;;;;;4941027;29;20223;-47
2021/11/25 01:02:13;;;;;;;5.03;1.92;;;24.60;50.90;;;;;;4942104;29;20856;-46
2021/11/25 01:04:44;;;;;;;5.28;1.67;;;24.70;50.90;;;;;;4946091;29;20210;-49
2021/11/25 01:07:15;;;;;;;3.30;1.55;;;24.70;50.90;;;;;;4942599;29;20267;-49
2021/11/25 01:09:45;;;;;;;3.70;1.70;;;24.70;50.90;;;;;;4950045;29;20242;-46
2021/11/25 01:12:16;;;;;;;5.70;1.95;;;24.80;50.90;;;;;;4939936;29;20199;-50
2021/11/25 01:14:48;;;;;;;5.60;1.95;;;24.80;50.80;;;;;;4949724;28;20227;-48
2021/11/25 01:17:19;;;;;;;6.22;1.90;;;24.80;50.80;;;;;;4943381;29;20202;-46
2021/11/25 01:19:50;;;;;;;6.72;2.20;;;24.90;50.90;;;;;;4946610;28;20231;-51
2021/11/25 01:22:21;;;;;;;5.90;2.10;;;24.90;50.80;;;;;;4944763;29;20269;-49
2021/11/25 01:24:51;;;;;;;5.60;2.20;;;24.90;50.80;;;;;;4943222;28;20234;-50
2021/11/25 01:27:22;;;;;;;4.82;2.17;;;24.90;50.80;;;;;;4948347;29;20199;-49
2021/11/25 01:29:54;;;;;;;6.65;2.40;;;24.90;50.70;;;;;;4940811;28;20269;-49
2021/11/25 01:32:25;;;;;;;4.97;1.88;;;24.90;50.70;;;;;;4950293;29;20199;-48
2021/11/25 01:34:56;;;;;;;8.35;2.40;;;25.00;50.70;;;;;;4940158;28;20219;-46
2021/11/25 01:37:28;;;;;;;6.72;2.25;;;25.00;50.70;;;;;;4945990;28;20214;-49
2021/11/25 01:39:59;;;;;;;5.15;1.98;;;25.00;50.70;;;;;;4942780;29;20235;-48
2021/11/25 01:42:29;;;;;;;5.22;2.00;;;25.10;50.70;;;;;;4941660;29;20215;-46
2021/11/25 01:45:02;;;;;;;8.13;2.13;;;25.10;50.60;;;;;;4944242;28;20234;-46
2021/11/25 01:47:32;;;;;;;6.80;2.28;;;25.10;50.60;;;;;;4939252;29;20208;-47
2021/11/25 01:50:03;;;;;;;6.53;2.53;;;25.10;50.60;;;;;;4946410;29;20242;-47
2021/11/25 01:52:34;;;;;;;8.95;2.70;;;25.10;50.60;;;;;;4942724;29;20195;-50
2021/11/25 01:55:05;;;;;;;7.00;2.35;;;25.20;50.70;;;;;;4946595;28;21687;-47
2021/11/25 01:57:35;;;;;;;7.55;2.10;;;25.20;50.70;;;;;;4942770;29;20198;-46
2021/11/25 02:00:09;;;;;;;7.18;2.28;;;25.20;50.70;;;;;;4939888;29;20707;-46
2021/11/25 02:02:40;;;;;;;6.72;2.30;;;25.30;50.70;;;;;;4947972;29;20266;-48
2021/11/25 02:05:11;;;;;;;5.00;2.20;;;25.30;50.60;;;;;;4940385;28;20289;-48
2021/11/25 02:07:41;;;;;;;5.10;2.33;;;25.30;50.50;;;;;;4947521;29;20706;-47
2021/11/25 02:10:13;;;;;;;6.13;2.17;;;25.40;50.60;;;;;;4939030;28;20340;-47
2021/11/25 02:12:44;;;;;;;7.60;1.98;;;25.40;50.70;;;;;;4944520;28;20618;-46
2021/11/25 02:15:18;;;;;;;7.05;2.40;;;25.40;50.60;;;;;;4943536;29;20270;-47
2021/11/25 02:17:49;;;;;;;7.68;2.40;;;25.50;50.50;;;;;;4944146;28;20207;-46
2021/11/25 02:20:20;;;;;;;5.78;2.10;;;25.50;50.40;;;;;;4943732;28;20227;-47
2021/11/25 02:22:52;;;;;;;8.93;2.35;;;25.60;50.40;;;;;;4940066;28;20207;-46
2021/11/25 02:25:23;;;;;;;6.97;3.05;;;25.60;50.20;;;;;;4948712;29;20560;-49
2021/11/25 02:27:53;;;;;;;16.20;3.40;;;25.60;50.10;;;;;;4940324;29;20202;-47
2021/11/25 02:30:24;;;;;;;13.18;3.38;;;25.70;50.00;;;;;;4947681;28;20211;-46
2021/11/25 02:32:55;;;;;;;9.80;2.70;;;25.70;50.00;;;;;;4940965;29;20206;-47
2021/11/25 02:35:28;;;;;;;8.50;2.50;;;25.70;49.90;;;;;;4944402;28;20293;-48
2021/11/25 02:38:00;;;;;;;8.60;2.78;;;25.70;49.90;;;;;;4944858;28;20191;-49
2021/11/25 02:40:35;;;;;;;8.60;2.55;;;25.80;49.90;;;;;;4939409;28;20234;-46
2021/11/25 02:43:08;;;;;;;11.98;2.88;;;25.80;49.80;;;;;;4946272;29;20198;-47
2021/11/25 02:45:49;;;;;;;8.65;2.53;;;25.80;49.80;;;;;;4939187;29;21687;-48
2021/11/25 02:48:21;;;;;;;8.00;2.75;;;25.80;49.80;;;;;;4944899;28;20692;-49
2021/11/25 02:50:53;;;;;;;9.48;2.78;;;25.90;49.80;;;;;;4942505;29;20610;-48
2021/11/25 02:53:27;;;;;;;9.98;2.70;;;26.00;49.80;;;;;;4940424;28;20792;-51
2021/11/25 02:55:59;;;;;;;8.90;2.53;;;26.00;49.70;;;;;;4935472;29;20214;-51
2021/11/25 02:58:30;;;;;;;9.63;2.60;;;26.00;49.70;;;;;;4937655;28;20751;-50
2021/11/25 03:01:05;;;;;;;8.60;2.47;;;26.00;49.60;;;;;;4946447;29;20258;-46
2021/11/25 03:03:36;;;;;;;6.43;2.35;;;26.10;49.50;;;;;;4940665;29;20293;-48
2021/11/25 03:06:06;;;;;;;9.63;2.55;;;26.10;49.40;;;;;;4943273;28;20231;-48
2021/11/25 03:08:39;;;;;;;10.07;2.95;;;26.20;49.50;;;;;;4942936;29;20195;-46
2021/11/25 03:11:11;;;;;;;9.02;2.53;;;26.20;49.40;;;;;;4940650;28;20207;-49
2021/11/25 03:13:43;;;;;;;6.10;2.38;;;26.20;49.30;;;;;;4946506;29;20195;-49
2021/11/25 03:16:15;;;;;;;6.43;1.85;;;26.20;48.80;;;;;;4937461;28;20231;-48
2021/11/25 03:18:46;;;;;;;4.90;2.10;;;26.30;46.80;;;;;;4946444;29;21148;-47
2021/11/25 03:21:17;;;;;;;8.15;1.67;;;26.30;46.00;;;;;;4936901;29;20282;-50
2021/11/25 03:23:51;;;;;;;4.40;1.17;;;26.30;43.70;;;;;;4943754;29;20196;-48
2021/11/25 03:26:23;;;;;;;2.30;1.02;;;26.30;39.90;;;;;;4942274;29;21510;-50
2021/11/25 03:28:53;;;;;;;3.53;0.90;;;26.30;37.90;;;;;;4942986;28;20203;-50
2021/11/25 03:31:29;;;;;;;2.78;0.85;;;26.30;36.80;;;;;;4943218;29;20203;-51
2021/11/25 03:34:02;;;;;;;4.93;0.98;;;26.30;35.70;;;;;;4938898;28;20207;-47
2021/11/25 03:36:32;;;;;;;4.28;1.00;;;26.40;33.60;;;;;;4947243;28;20220;-48
2021/11/25 03:39:05;;;;;;;1.33;0.60;;;26.40;32.30;;;;;;4938734;29;20787;-45
2021/11/25 03:41:36;;;;;;;2.13;0.50;;;26.40;31.60;;;;;;4944595;28;20254;-50
2021/11/25 03:44:06;;;;;;;2.28;0.75;;;26.40;32.00;;;;;;4942730;29;20223;-49
2021/11/25 03:46:37;;;;;;;1.10;0.63;;;26.40;31.20;;;;;;4941759;28;20235;-52
2021/11/25 03:49:08;;;;;;;2.58;0.68;;;26.40;30.70;;;;;;4945035;29;20202;-49
2021/11/25 03:51:38;;;;;;;1.45;0.50;;;26.50;30.30;;;;;;4936386;28;20207;-48
2021/11/25 03:54:11;;;;;;;2.88;0.85;;;26.50;30.50;;;;;;4945995;28;20262;-46
2021/11/25 03:56:41;;;;;;;2.20;0.70;;;26.50;29.80;;;;;;4939625;29;20318;-46
2021/11/25 03:59:12;;;;;;;3.20;0.50;;;26.50;29.80;;;;;;4943486;29;20207;-48
2021/11/25 04:01:49;;;;;;;2.58;0.70;;;26.50;29.50;;;;;;4942058;29;20198;-47
2021/11/25 04:04:20;;;;;;;1.75;0.65;;;26.50;29.50;;;;;;4941892;28;20731;-48
2021/11/25 04:06:51;;;;;;;1.45;0.55;;;26.50;29.10;;;;;;4945678;29;20211;-48
2021/11/25 04:09:23;;;;;;;1.52;0.60;;;26.50;29.30;;;;;;4940778;28;20973;-48
2021/11/25 04:11:54;;;;;;;0.98;0.40;;;26.50;29.20;;;;;;4952106;29;20253;-47
2021/11/25 04:14:24;;;;;;;1.90;0.73;;;26.60;29.50;;;;;;4943661;29;20250;-48
2021/11/25 04:16:55;;;;;;;2.72;1.00;;;26.60;29.30;;;;;;4948351;28;20262;-46
2021/11/25 04:19:25;;;;;;;2.25;0.55;;;26.60;29.00;;;;;;4943731;29;20706;-48
2021/11/25 04:21:56;;;;;;;1.60;0.90;;;26.70;28.90;;;;;;4944576;28;20252;-47
2021/11/25 04:24:29;;;;;;;2.42;0.60;;;26.70;28.90;;;;;;4948447;29;20200;-47
2021/11/25 04:27:00;;;;;;;1.95;0.60;;;26.80;28.40;;;;;;4942145;28;20727;-49
2021/11/25 04:29:30;;;;;;;2.90;0.80;;;26.70;28.20;;;;;;4950684;29;20260;-47
2021/11/25 04:37:34;;;;;;;3.40;0.73;;;26.80;27.60;;;;;;4947614;29;20202;-46
2021/11/25 04:40:07;;;;;;;5.32;0.70;;;26.80;27.30;;;;;;4941343;29;20227;-49
2021/11/25 04:42:37;;;;;;;6.18;0.90;;;26.90;27.20;;;;;;4950633;28;20253;-47
2021/11/25 04:45:09;;;;;;;11.50;1.95;;;26.80;26.70;;;;;;4938436;29;20274;-45
2021/11/25 04:47:40;;;;;;;4.32;1.10;;;26.90;26.80;;;;;;4949885;28;20213;-46
2021/11/25 04:50:11;;;;;;;2.22;0.80;;;26.90;26.60;;;;;;4943422;29;20195;-47
2021/11/25 04:52:42;;;;;;;1.65;0.60;;;26.90;26.50;;;;;;4947690;28;21695;-48
2021/11/25 04:55:14;;;;;;;4.72;0.60;;;26.90;26.80;;;;;;4944940;29;20222;-47
2021/11/25 04:57:45;;;;;;;2.90;0.82;;;26.90;27.00;;;;;;4943827;28;20285;-49
2021/11/25 05:00:16;;;;;;;2.63;0.90;;;27.00;26.80;;;;;;4949089;29;20223;-48
2021/11/25 05:02:47;;;;;;;2.53;0.60;;;27.00;26.70;;;;;;4937387;28;20326;-46
2021/11/25 05:05:18;;;;;;;3.63;1.05;;;27.00;26.70;;;;;;4949591;28;20223;-48
2021/11/25 05:07:49;;;;;;;3.90;1.75;;;27.00;27.20;;;;;;4940481;29;20254;-47
2021/11/25 05:10:22;;;;;;;4.55;1.50;;;27.10;27.60;;;;;;4947300;28;20286;-48
2021/11/25 05:12:52;;;;;;;5.60;2.00;;;27.10;28.40;;;;;;4944419;29;20772;-51
2021/11/25 05:15:23;;;;;;;8.88;2.45;;;27.10;29.20;;;;;;4942723;28;20227;-49
2021/11/25 05:17:53;;;;;;;6.22;1.73;;;27.20;29.50;;;;;;4946430;29;20206;-49
2021/11/25 05:20:24;;;;;;;7.85;1.88;;;27.10;30.00;;;;;;4939797;28;20226;-50
2021/11/25 05:22:55;;;;;;;5.88;1.50;;;27.20;29.50;;;;;;4949518;29;20255;-52
2021/11/25 05:25:28;;;;;;;8.77;1.60;;;27.20;29.80;;;;;;4942307;29;20270;-50
2021/11/25 05:27:59;;;;;;;4.57;1.20;;;27.30;29.70;;;;;;4947135;28;20211;-50
2021/11/25 05:30:32;;;;;;;8.43;1.27;;;27.20;29.40;;;;;;4944467;29;20262;-50
2021/11/25 05:33:04;;;;;;;3.47;1.15;;;27.30;29.40;;;;;;4942587;28;20631;-52
2021/11/25 05:35:35;;;;;;;3.55;1.50;;;27.30;29.50;;;;;;4947613;29;20266;-47
2021/11/25 05:38:05;;;;;;;6.78;1.08;;;27.30;29.50;;;;;;4939027;28;20234;-50
2021/11/25 05:40:38;;;;;;;4.13;1.00;;;27.40;29.80;;;;;;4944884;29;20288;-51
2021/11/25 05:43:08;;;;;;;3.03;1.20;;;27.40;29.80;;;;;;4938174;29;20266;-49
2021/11/25 05:45:39;;;;;;;4.35;1.20;;;27.40;30.00;;;;;;4945650;28;20242;-49
2021/11/25 05:48:10;;;;;;;2.00;0.98;;;27.40;30.50;;;;;;4944069;29;20214;-47
2021/11/25 05:50:40;;;;;;;6.55;1.20;;;27.40;31.30;;;;;;4942119;28;20210;-46
2021/11/25 05:53:17;;;;;;;6.43;1.45;;;27.50;31.70;;;;;;4946675;29;20660;-46
2021/11/25 05:55:50;;;;;;;4.00;1.20;;;27.50;31.90;;;;;;4941196;28;20223;-43
2021/11/25 05:58:21;;;;;;;3.60;1.20;;;27.50;32.10;;;;;;4948091;28;20289;-47
2021/11/25 06:00:51;;;;;;;3.22;1.13;;;27.50;32.50;;;;;;4941450;29;20223;-52
2021/11/25 06:03:22;;;;;;;4.28;1.20;;;27.50;32.70;;;;;;4947326;28;20739;-49
2021/11/25 06:05:53;;;;;;;3.58;0.98;;;27.60;32.90;;;;;;4934742;29;20223;-49
2021/11/25 06:08:24;;;;;;;2.85;1.08;;;27.60;33.20;;;;;;4937743;29;20211;-49
2021/11/25 06:10:59;;;;;;;4.93;1.30;;;27.60;33.40;;;;;;4945094;29;20335;-47
2021/11/25 06:13:29;;;;;;;2.33;0.98;;;27.60;33.10;;;;;;4938670;29;20297;-47
2021/11/25 06:16:00;;;;;;;2.67;0.77;;;27.70;33.00;;;;;;4947656;29;20273;-48
2021/11/25 06:18:31;;;;;;;4.10;1.42;;;27.70;32.90;;;;;;4937212;29;20203;-46
2021/11/25 06:21:01;;;;;;;6.32;1.40;;;27.70;32.70;;;;;;4945391;28;20231;-48
2021/11/25 06:23:32;;;;;;;2.55;1.10;;;27.70;32.70;;;;;;4943881;29;20242;-45
2021/11/25 06:26:04;;;;;;;6.82;1.63;;;27.80;32.90;;;;;;4943536;28;20694;-47
2021/11/25 06:28:35;;;;;;;8.02;1.40;;;27.80;32.90;;;;;;4945902;28;20195;-49
2021/11/25 06:31:06;;;;;;;9.75;1.95;;;27.80;32.90;;;;;;4940622;28;20207;-45
2021/11/25 06:33:36;;;;;;;8.02;1.45;;;27.80;33.10;;;;;;4947546;29;20210;-48
2021/11/25 06:36:07;;;;;;;10.82;1.88;;;27.80;33.30;;;;;;4937709;29;20290;-45
2021/11/25 06:38:38;;;;;;;9.50;2.00;;;27.90;33.30;;;;;;4929027;28;20210;-47
2021/11/25 06:41:10;;;;;;;20.08;2.17;;;27.80;33.30;;;;;;4941958;29;20564;-49
2021/11/25 06:43:41;;;;;;;12.75;2.08;;;27.90;33.30;;;;;;4945133;28;20920;-47
2021/11/25 06:46:11;;;;;;;12.75;1.95;;;27.90;33.40;;;;;;4944059;29;20278;-44
2021/11/25 06:48:42;;;;;;;14.60;1.90;;;27.90;33.30;;;;;;4939401;28;20195;-45
2021/11/25 06:51:13;;;;;;;14.15;2.00;;;27.90;33.20;;;;;;4947030;28;20926;-44
2021/11/25 06:53:45;;;;;;;11.23;1.55;;;27.90;33.40;;;;;;4938423;29;20296;-45
2021/11/25 06:56:18;;;;;;;8.60;1.63;;;27.90;33.40;;;;;;4946270;28;20698;-48
2021/11/25 06:58:49;;;;;;;14.32;1.75;;;27.90;33.40;;;;;;4940507;29;20249;-45
2021/11/25 07:01:20;;;;;;;6.57;2.15;;;27.90;33.40;;;;;;4942098;29;20334;-47
2021/11/25 07:03:51;;;;;;;9.57;1.85;;;27.90;33.40;;;;;;4945005;29;20257;-46
2021/11/25 07:06:21;;;;;;;9.65;1.50;;;27.90;33.40;;;;;;4939700;29;20377;-46
2021/11/25 07:08:52;;;;;;;9.25;1.40;;;27.90;33.50;;;;;;4921749;29;20192;-46
2021/11/25 07:11:25;;;;;;;6.85;1.50;;;27.90;33.50;;;;;;4935514;29;20625;-46
2021/11/25 07:13:55;;;;;;;9.60;1.65;;;27.90;33.50;;;;;;4946741;29;20208;-46
2021/11/25 07:16:27;;;;;;;4.97;1.38;;;27.90;33.60;;;;;;4939266;29;20222;-49
2021/11/25 07:18:57;;;;;;;4.85;1.27;;;27.80;33.60;;;;;;4943374;28;20244;-45
2021/11/25 07:21:28;;;;;;;6.85;1.42;;;27.90;33.70;;;;;;4941400;29;20227;-46
2021/11/25 07:23:59;;;;;;;5.57;1.50;;;27.80;33.60;;;;;;4940449;28;20199;-46
2021/11/25 07:26:31;;;;;;;8.70;1.50;;;27.80;33.70;;;;;;4945020;29;20219;-45
2021/11/25 07:29:01;;;;;;;5.47;1.10;;;27.80;33.70;;;;;;4939042;28;20212;-46
2021/11/25 07:31:35;;;;;;;3.60;1.08;;;27.70;33.70;;;;;;4947017;29;20203;-48
2021/11/25 07:34:05;;;;;;;3.75;1.10;;;27.70;33.80;;;;;;4939291;28;20199;-47
2021/11/25 07:36:36;;;;;;;3.05;1.17;;;27.70;33.80;;;;;;4943950;28;20219;-46
2021/11/25 07:39:07;;;;;;;2.25;0.90;;;27.60;33.90;;;;;;4937624;29;20220;-45
2021/11/25 07:41:40;;;;;;;4.68;1.40;;;27.70;34.10;;;;;;4927224;29;20240;-47
2021/11/25 07:44:11;;;;;;;5.10;1.40;;;27.60;34.20;;;;;;4945316;28;20576;-48
2021/11/25 07:46:41;;;;;;;5.57;1.13;;;27.60;34.30;;;;;;4938174;28;20223;-48
2021/11/25 07:49:12;;;;;;;3.67;0.90;;;27.60;34.40;;;;;;4945667;29;20746;-49
2021/11/25 07:51:43;;;;;;;4.78;1.15;;;27.60;34.50;;;;;;4937994;28;20202;-49
2021/11/25 07:54:13;;;;;;;4.07;1.20;;;27.50;34.40;;;;;;4942574;29;20251;-49
2021/11/25 07:56:46;;;;;;;7.70;1.15;;;27.50;34.50;;;;;;4940919;29;20684;-49
2021/11/25 07:59:17;;;;;;;4.10;1.00;;;27.50;34.60;;;;;;4941034;29;20718;-47
2021/11/25 08:01:47;;;;;;;2.53;0.98;;;27.50;34.70;;;;;;4945323;29;20223;-51
2021/11/25 08:04:18;;;;;;;3.88;1.40;;;27.50;34.80;;;;;;4939056;28;20211;-46
2021/11/25 08:06:48;;;;;;;3.33;1.05;;;27.40;34.70;;;;;;4947375;29;20198;-47
2021/11/25 08:09:19;;;;;;;2.92;0.82;;;27.40;34.80;;;;;;4937070;28;20199;-46
2021/11/25 08:11:52;;;;;;;4.03;1.30;;;27.40;34.90;;;;;;4927698;28;20203;-50
2021/11/25 08:14:22;;;;;;;1.90;1.00;;;27.40;35.00;;;;;;4946914;28;20195;-48
2021/11/25 08:16:58;;;;;;;13.50;2.08;;;27.30;35.30;;;;;;4946638;28;20205;-47
2021/11/25 08:19:28;;;;;;;10.13;1.58;;;27.30;35.00;;;;;;4947456;28;20217;-48
2021/11/25 08:21:59;;;;;;;8.18;1.65;;;27.20;34.30;;;;;;4942940;28;20226;-51
2021/11/25 08:24:30;;;;;;;9.57;1.60;;;27.20;34.30;;;;;;4940682;29;20282;-52
2021/11/25 08:27:03;;;;;;;8.55;1.40;;;27.10;34.40;;;;;;4942021;28;20254;-48
2021/11/25 08:29:33;;;;;;;11.07;1.83;;;27.10;34.60;;;;;;4940768;28;20248;-53
2021/11/25 08:32:04;;;;;;;9.65;1.50;;;27.10;34.80;;;;;;4941428;29;20207;-54
2021/11/25 08:34:35;;;;;;;11.15;1.63;;;27.10;35.00;;;;;;4942666;29;20203;-50
2021/11/25 08:37:05;;;;;;;9.15;1.70;;;27.00;35.10;;;;;;4943698;28;20207;-55
2021/11/25 08:39:37;;;;;;;6.15;1.45;;;27.00;35.10;;;;;;4943286;28;20202;-47
2021/11/25 08:42:11;;;;;;;5.07;1.23;;;27.00;35.10;;;;;;4944206;28;20695;-51
2021/11/25 08:44:41;;;;;;;9.50;1.98;;;26.90;35.00;;;;;;4944739;28;20249;-52
2021/11/25 08:47:12;;;;;;;6.50;1.40;;;26.90;35.10;;;;;;4942802;29;20766;-50
2021/11/25 08:49:43;;;;;;;7.13;1.50;;;26.90;35.10;;;;;;4944880;28;20204;-48
2021/11/25 08:52:13;;;;;;;3.67;1.20;;;26.90;35.20;;;;;;4945951;28;20259;-47
2021/11/25 08:54:44;;;;;;;4.47;1.50;;;26.90;35.30;;;;;;4945837;28;20242;-49
2021/11/25 08:57:17;;;;;;;4.85;1.60;;;26.80;35.20;;;;;;4950040;29;20207;-52
2021/11/25 08:59:47;;;;;;;8.00;1.38;;;26.80;35.20;;;;;;4946729;29;20234;-52
2021/11/25 09:02:18;;;;;;;3.17;1.00;;;26.70;35.30;;;;;;4947323;28;20615;-54
2021/11/25 09:04:49;;;;;;;2.97;1.05;;;26.70;35.30;;;;;;4948310;28;20241;-52
2021/11/25 09:07:20;;;;;;;6.30;1.08;;;26.70;35.50;;;;;;4948814;28;20290;-54
2021/11/25 09:09:51;;;;;;;5.47;1.40;;;26.60;35.50;;;;;;4947056;28;20615;-51
2021/11/25 09:12:23;;;;;;;3.95;1.25;;;26.60;35.70;;;;;;4947473;28;20211;-50
2021/11/25 09:14:54;;;;;;;6.85;1.35;;;26.50;35.70;;;;;;4948168;28;20282;-55
2021/11/25 09:17:25;;;;;;;3.28;1.00;;;26.50;35.80;;;;;;4949673;29;20203;-52
2021/11/25 09:20:02;;;;;;;5.20;1.40;;;26.50;35.90;;;;;;4949679;28;20238;-51
2021/11/25 09:22:36;;;;;;;5.05;1.10;;;26.50;35.90;;;;;;4946600;29;20277;-51
2021/11/25 09:25:11;;;;;;;6.22;1.17;;;26.50;36.10;;;;;;4949178;28;20222;-50
2021/11/25 09:27:45;;;;;;;5.97;1.42;;;26.50;36.20;;;;;;4930444;29;20194;-51
2021/11/25 09:30:20;;;;;;;7.18;1.17;;;26.40;36.00;;;;;;4945906;29;20195;-53
2021/11/25 09:32:51;;;;;;;4.82;1.00;;;26.40;36.00;;;;;;4945810;28;20202;-52
2021/11/25 09:35:23;;;;;;;4.70;0.93;;;26.40;36.10;;;;;;4947470;28;20632;-52
2021/11/25 09:37:54;;;;;;;2.97;0.90;;;26.30;36.10;;;;;;4947576;28;20267;-54
2021/11/25 09:40:27;;;;;;;5.00;1.10;;;26.30;36.20;;;;;;4948543;28;20576;-51
2021/11/25 09:43:05;;;;;;;1.85;1.00;;;26.30;36.20;;;;;;4946954;29;20234;-50
2021/11/25 09:45:38;;;;;;;3.20;0.98;;;26.20;36.20;;;;;;4949205;29;20214;-54
2021/11/25 09:48:12;;;;;;;4.93;0.85;;;26.20;36.30;;;;;;4944620;29;20205;-52
2021/11/25 09:50:49;;;;;;;3.53;1.30;;;26.10;36.30;;;;;;4931023;29;20201;-51
2021/11/25 09:53:23;;;;;;;2.45;0.90;;;26.10;36.40;;;;;;4928987;29;20208;-50
2021/11/25 09:56:01;;;;;;;4.35;0.90;;;26.10;36.40;;;;;;4924621;29;20223;-52
2021/11/25 09:58:41;;;;;;;2.72;0.93;;;26.10;36.50;;;;;;4927786;29;20283;-51
2021/11/25 10:01:15;;;;;;;2.53;1.02;;;26.00;36.50;;;;;;4923041;29;20204;-52
2021/11/25 10:03:54;;;;;;;3.38;1.00;;;26.00;36.60;;;;;;4912128;29;20207;-54
2021/11/25 10:06:33;;;;;;;2.75;0.80;;;26.00;36.60;;;;;;4926535;29;20223;-51
2021/11/25 10:09:07;;;;;;;4.70;0.95;;;26.00;36.80;;;;;;4926573;29;20234;-51
2021/11/25 10:11:39;;;;;;;1.25;0.73;;;25.90;36.70;;;;;;4922442;29;20203;-50
2021/11/25 10:14:15;;;;;;;3.55;0.90;;;25.90;36.80;;;;;;4924679;29;20215;-52
2021/11/25 10:16:50;;;;;;;2.80;0.88;;;25.90;36.80;;;;;;4931107;29;20215;-52
2021/11/25 10:19:23;;;;;;;2.22;1.00;;;25.80;36.80;;;;;;4931081;29;20658;-53
2021/11/25 10:21:56;;;;;;;3.03;0.95;;;25.80;36.90;;;;;;4931136;29;20231;-54
2021/11/25 10:24:35;;;;;;;1.55;0.90;;;25.80;36.90;;;;;;4924052;29;20210;-53
2021/11/25 10:27:19;;;;;;;4.00;0.98;;;25.80;37.00;;;;;;4926842;29;20211;-54
2021/11/25 10:30:15;;;;;;;0.98;0.88;;;25.70;36.90;;;;;;4931789;29;20199;-53
2021/11/25 10:32:58;;;;;;;1.77;0.80;;;25.70;37.00;;;;;;4930395;29;20207;-51
2021/11/25 10:35:41;;;;;;;2.88;0.98;;;25.70;37.10;;;;;;4929741;29;20291;-54
2021/11/25 10:38:24;;;;;;;2.83;0.90;;;25.60;37.00;;;;;;4924703;29;20212;-53
2021/11/25 10:40:55;;;;;;;1.48;0.70;;;25.60;37.10;;;;;;4928410;29;20199;-53
2021/11/25 10:43:31;;;;;;;1.75;0.70;;;25.50;37.10;;;;;;4931177;29;20223;-51
2021/11/25 10:46:11;;;;;;;1.83;0.73;;;25.50;37.90;;;;;;4931197;29;20234;-55
2021/11/25 10:48:46;;;;;;;2.28;0.80;;;25.50;37.30;;;;;;4928706;29;20255;-55
2021/11/25 10:51:32;;;;;;;2.92;0.90;;;25.50;37.40;;;;;;4929711;29;20673;-53
2021/11/25 10:54:07;;;;;;;1.05;0.65;;;25.40;37.40;;;;;;4928123;29;20211;-54
2021/11/25 10:56:49;;;;;;;2.80;0.90;;;25.40;37.90;;;;;;4917477;29;20219;-51
2021/11/25 10:59:35;;;;;;;2.70;0.70;;;25.40;37.40;;;;;;4930035;29;20207;-52
2021/11/25 11:02:28;;;;;;;2.28;0.65;;;25.40;37.50;;;;;;4918067;29;20232;-52
2021/11/25 11:05:02;;;;;;;1.00;0.60;;;25.30;37.40;;;;;;4929590;29;20665;-51
2021/11/25 11:07:35;;;;;;;0.98;0.73;;;25.30;37.40;;;;;;4931595;29;20759;-53
2021/11/25 11:10:22;;;;;;;1.02;0.60;;;25.30;37.50;;;;;;4929917;29;20204;-52
2021/11/25 11:13:12;;;;;;;1.23;0.70;;;25.30;37.50;;;;;;4927245;29;20200;-54
2021/11/25 11:15:54;;;;;;;0.95;0.50;;;25.20;37.60;;;;;;4915701;29;20325;-54
2021/11/25 11:18:45;;;;;;;0.90;0.70;;;25.20;37.50;;;;;;4918093;29;20282;-53
2021/11/25 11:21:31;;;;;;;1.20;0.65;;;25.20;37.50;;;;;;4919409;29;20226;-51
2021/11/25 11:24:05;;;;;;;2.13;0.82;;;25.10;37.60;;;;;;4928916;29;20218;-53
2021/11/25 11:26:47;;;;;;;1.10;0.65;;;25.10;37.50;;;;;;4929776;29;20219;-52
2021/11/25 11:29:20;;;;;;;2.25;0.90;;;25.10;37.60;;;;;;4926517;29;20318;-55
2021/11/25 11:31:54;;;;;;;1.08;0.60;;;25.00;37.60;;;;;;4917211;29;20227;-52
2021/11/25 11:34:31;;;;;;;1.48;0.60;;;25.00;37.70;;;;;;4922402;29;20569;-54
2021/11/25 11:37:03;;;;;;;1.17;0.60;;;25.00;37.70;;;;;;4916246;29;20203;-50
2021/11/25 11:39:36;;;;;;;1.25;0.50;;;24.90;37.70;;;;;;4932206;29;20287;-52
2021/11/25 11:42:11;;;;;;;1.27;0.60;;;24.90;37.80;;;;;;4914907;29;20699;-55
2021/11/25 11:44:45;;;;;;;0.70;0.60;;;24.90;37.80;;;;;;4932543;28;20661;-50
2021/11/25 11:47:19;;;;;;;1.05;0.50;;;24.90;37.70;;;;;;4914066;29;20554;-50
2021/11/25 11:49:52;;;;;;;0.90;0.70;;;24.90;37.70;;;;;;4930381;29;20202;-52
2021/11/25 11:52:26;;;;;;;0.45;0.45;;;24.80;37.60;;;;;;4930114;29;20204;-51
2021/11/25 11:55:01;;;;;;;1.17;0.57;;;24.80;37.80;;;;;;4915718;29;20255;-53
2021/11/25 11:57:41;;;;;;;0.88;0.65;;;24.80;37.70;;;;;;4927462;29;20203;-52
2021/11/25 12:00:39;;;;;;;1.00;0.63;;;24.70;37.70;;;;;;4921243;28;20384;-53
2021/11/25 12:03:12;;;;;;;1.08;0.57;;;24.70;37.70;;;;;;4929885;29;20321;-50
2021/11/25 12:05:53;;;;;;;1.67;0.60;;;24.70;37.80;;;;;;4928777;29;20230;-50
2021/11/25 12:08:55;;;;;;;0.77;0.60;;;24.60;37.90;;;;;;4929123;29;20211;-51
2021/11/25 12:11:46;;;;;;;1.13;0.50;;;24.60;37.90;;;;;;4930297;29;20203;-49
2021/11/25 12:14:23;;;;;;;1.52;0.60;;;24.60;37.90;;;;;;4929697;29;20570;-49
2021/11/25 12:16:57;;;;;;;2.58;0.50;;;24.50;37.90;;;;;;4931002;29;20214;-53
2021/11/25 12:19:33;;;;;;;0.47;0.40;;;24.50;38.00;;;;;;4930356;29;20192;-51
2021/11/25 12:22:19;;;;;;;1.02;0.70;;;24.50;38.00;;;;;;4929921;29;20262;-50
2021/11/25 12:24:59;;;;;;;1.42;0.60;;;24.50;38.00;;;;;;4930901;29;20234;-53
2021/11/25 12:27:46;;;;;;;0.45;0.35;;;24.40;37.90;;;;;;4930109;29;20199;-51
2021/11/25 12:30:20;;;;;;;1.27;0.50;;;24.40;37.90;;;;;;4930635;29;20562;-51
2021/11/25 12:32:59;;;;;;;0.32;0.32;;;24.40;38.00;;;;;;4903354;29;20204;-51
2021/11/25 12:35:49;;;;;;;0.93;0.50;;;24.30;38.00;;;;;;4932706;29;20751;-50
2021/11/25 12:38:23;;;;;;;0.82;0.50;;;24.30;38.00;;;;;;4933800;29;20214;-50
2021/11/25 12:41:08;;;;;;;1.27;0.35;;;24.30;38.00;;;;;;4934329;29;20203;-50
2021/11/25 12:43:43;;;;;;;0.90;0.55;;;24.30;38.00;;;;;;4919288;29;20259;-50
2021/11/25 12:46:16;;;;;;;1.45;0.65;;;24.30;38.10;;;;;;4932346;29;20314;-53
2021/11/25 12:48:50;;;;;;;0.70;0.40;;;24.20;38.10;;;;;;4932489;29;20199;-53
2021/11/25 12:51:22;;;;;;;1.52;0.50;;;24.20;38.20;;;;;;4930620;29;20207;-49
2021/11/25 12:53:57;;;;;;;0.60;0.43;;;24.20;38.20;;;;;;4932627;29;20215;-50
2021/11/25 12:56:38;;;;;;;1.05;0.45;;;24.10;38.20;;;;;;4922497;29;20287;-52
2021/11/25 12:59:11;;;;;;;1.13;0.45;;;24.10;38.20;;;;;;4919012;29;20208;-51
2021/11/25 13:01:43;;;;;;;0.63;0.40;;;24.10;38.20;;;;;;4926224;29;20695;-50
2021/11/25 13:04:17;;;;;;;0.50;0.50;;;24.10;38.30;;;;;;4926128;29;20232;-50
2021/11/25 13:06:53;;;;;;;0.88;0.30;;;24.00;38.20;;;;;;4921109;29;20223;-52
2021/11/25 13:09:31;;;;;;;0.40;0.40;;;24.00;38.30;;;;;;4926004;29;20206;-51
2021/11/25 13:12:04;;;;;;;0.77;0.50;;;24.00;38.30;;;;;;4933223;29;20203;-51
2021/11/25 13:14:36;;;;;;;0.32;0.32;;;24.00;38.40;;;;;;4932627;29;20200;-49
2021/11/25 13:17:13;;;;;;;0.80;0.70;;;24.00;38.40;;;;;;4930916;29;20208;-54
2021/11/25 13:19:53;;;;;;;0.75;0.50;;;24.00;38.50;;;;;;4930506;29;20203;-53
2021/11/25 13:22:29;;;;;;;0.65;0.40;;;23.90;38.40;;;;;;4917827;29;20303;-54